sensor_id;sensor_type;location;lat;lon;timestamp;temperature;humidity
56076;DHT22;41951;49.022;12.066;2023-10-19T00:00:36;8.10;99.90
56076;DHT22;41951;49.022;12.066;2023-10-19T00:03:04;8.10;99.90
56076;DHT22;41951;49.022;12.066;2023-10-19T00:05:32;8.00;99.90
56076;DHT22;41951;49.022;12.066;2023-10-19T00:08:02;8.00;99.90
56076;DHT22;41951;49.022;12.066;2023-10-19T00:10:43;8.00;99.90
56076;DHT22;41951;49.022;12.066;2023-10-19T00:13:11;8.10;99.90
56076;DHT22;41951;49.022;12.066;2023-10-19T00:15:41;8.10;99.90
56076;DHT22;41951;49.022;12.066;2023-10-19T00:18:18;8.20;99.90
56076;DHT22;41951;49.022;12.066;2023-10-19T00:20:45;8.20;99.90
56076;DHT22;41951;49.022;12.066;2023-10-19T00:23:14;8.20;99.90
56076;DHT22;41951;49.022;12.066;2023-10-19T00:25:47;8.10;99.90
56076;DHT22;41951;49.022;12.066;2023-10-19T00:28:17;8.10;99.90
56076;DHT22;41951;49.022;12.066;2023-10-19T00:30:44;8.10;99.90
56076;DHT22;41951;49.022;12.066;2023-10-19T00:33:11;8.10;99.90
56076;DHT22;41951;49.022;12.066;2023-10-19T00:35:47;8.10;99.90
56076;DHT22;41951;49.022;12.066;2023-10-19T00:38:24;8.10;99.90
56076;DHT22;41951;49.022;12.066;2023-10-19T00:40:53;8.10;99.90
56076;DHT22;41951;49.022;12.066;2023-10-19T00:43:29;8.20;99.90
56076;DHT22;41951;49.022;12.066;2023-10-19T00:45:59;8.10;99.90
56076;DHT22;41951;49.022;12.066;2023-10-19T00:48:27;8.10;99.90
56076;DHT22;41951;49.022;12.066;2023-10-19T00:50:54;8.10;99.90
56076;DHT22;41951;49.022;12.066;2023-10-19T00:53:33;8.10;99.90
56076;DHT22;41951;49.022;12.066;2023-10-19T00:56:00;8.20;99.90
56076;DHT22;41951;49.022;12.066;2023-10-19T00:58:28;8.10;99.90
56076;DHT22;41951;49.022;12.066;2023-10-19T01:00:55;8.10;99.90
56076;DHT22;41951;49.022;12.066;2023-10-19T01:03:21;8.10;99.90
56076;DHT22;41951;49.022;12.066;2023-10-19T01:05:47;8.10;99.90
56076;DHT22;41951;49.022;12.066;2023-10-19T01:08:14;8.10;99.90
56076;DHT22;41951;49.022;12.066;2023-10-19T01:10:51;8.10;99.90
56076;DHT22;41951;49.022;12.066;2023-10-19T01:13:18;8.20;99.90
56076;DHT22;41951;49.022;12.066;2023-10-19T01:15:52;8.20;99.90
56076;DHT22;41951;49.022;12.066;2023-10-19T01:18:18;8.10;99.90
56076;DHT22;41951;49.022;12.066;2023-10-19T01:20:43;8.10;99.90
56076;DHT22;41951;49.022;12.066;2023-10-19T01:23:20;8.10;99.90
56076;DHT22;41951;49.022;12.066;2023-10-19T01:25:58;8.10;99.90
56076;DHT22;41951;49.022;12.066;2023-10-19T01:28:32;8.10;99.90
56076;DHT22;41951;49.022;12.066;2023-10-19T01:31:15;8.10;99.90
56076;DHT22;41951;49.022;12.066;2023-10-19T01:33:48;8.10;99.90
56076;DHT22;41951;49.022;12.066;2023-10-19T01:36:14;8.10;99.90
56076;DHT22;41951;49.022;12.066;2023-10-19T01:38:43;8.10;99.90
56076;DHT22;41951;49.022;12.066;2023-10-19T01:41:09;8.10;99.90
56076;DHT22;41951;49.022;12.066;2023-10-19T01:43:45;8.10;99.90
56076;DHT22;41951;49.022;12.066;2023-10-19T01:46:13;8.10;99.90
56076;DHT22;41951;49.022;12.066;2023-10-19T01:48:43;8.10;99.90
56076;DHT22;41951;49.022;12.066;2023-10-19T01:51:11;8.10;99.90
56076;DHT22;41951;49.022;12.066;2023-10-19T01:53:38;8.10;99.90
56076;DHT22;41951;49.022;12.066;2023-10-19T01:56:14;8.00;99.90
56076;DHT22;41951;49.022;12.066;2023-10-19T01:58:41;8.00;99.90
56076;DHT22;41951;49.022;12.066;2023-10-19T02:01:08;8.00;99.90
56076;DHT22;41951;49.022;12.066;2023-10-19T02:03:56;8.10;99.90
56076;DHT22;41951;49.022;12.066;2023-10-19T02:06:24;8.10;99.90
56076;DHT22;41951;49.022;12.066;2023-10-19T02:09:02;8.00;99.90
56076;DHT22;41951;49.022;12.066;2023-10-19T02:11:39;8.00;99.90
56076;DHT22;41951;49.022;12.066;2023-10-19T02:14:08;8.00;99.90
56076;DHT22;41951;49.022;12.066;2023-10-19T02:16:45;8.00;99.90
56076;DHT22;41951;49.022;12.066;2023-10-19T02:19:12;8.00;99.90
56076;DHT22;41951;49.022;12.066;2023-10-19T02:21:38;8.10;99.90
56076;DHT22;41951;49.022;12.066;2023-10-19T02:24:08;8.00;99.90
56076;DHT22;41951;49.022;12.066;2023-10-19T02:26:35;8.00;99.90
56076;DHT22;41951;49.022;12.066;2023-10-19T02:29:03;8.00;99.90
56076;DHT22;41951;49.022;12.066;2023-10-19T02:31:40;8.00;99.90
56076;DHT22;41951;49.022;12.066;2023-10-19T02:34:09;8.10;99.90
56076;DHT22;41951;49.022;12.066;2023-10-19T02:36:41;8.10;99.90
56076;DHT22;41951;49.022;12.066;2023-10-19T02:39:09;8.20;99.90
56076;DHT22;41951;49.022;12.066;2023-10-19T02:44:08;8.20;99.90
56076;DHT22;41951;49.022;12.066;2023-10-19T02:46:35;8.20;99.90
56076;DHT22;41951;49.022;12.066;2023-10-19T02:49:05;8.20;99.90
56076;DHT22;41951;49.022;12.066;2023-10-19T02:51:41;8.20;99.90
56076;DHT22;41951;49.022;12.066;2023-10-19T02:54:08;8.20;99.90
56076;DHT22;41951;49.022;12.066;2023-10-19T02:56:35;8.30;99.90
56076;DHT22;41951;49.022;12.066;2023-10-19T02:59:02;8.30;99.90
56076;DHT22;41951;49.022;12.066;2023-10-19T03:01:30;8.30;99.90
56076;DHT22;41951;49.022;12.066;2023-10-19T03:03:58;8.30;99.90
56076;DHT22;41951;49.022;12.066;2023-10-19T03:06:29;8.30;99.90
56076;DHT22;41951;49.022;12.066;2023-10-19T03:08:59;8.30;99.90
56076;DHT22;41951;49.022;12.066;2023-10-19T03:11:27;8.30;99.90
56076;DHT22;41951;49.022;12.066;2023-10-19T03:13:54;8.30;99.90
56076;DHT22;41951;49.022;12.066;2023-10-19T03:16:20;8.30;99.90
56076;DHT22;41951;49.022;12.066;2023-10-19T03:18:47;8.30;99.90
56076;DHT22;41951;49.022;12.066;2023-10-19T03:21:12;8.30;99.90
56076;DHT22;41951;49.022;12.066;2023-10-19T03:23:38;8.30;99.90
56076;DHT22;41951;49.022;12.066;2023-10-19T03:26:04;8.30;99.90
56076;DHT22;41951;49.022;12.066;2023-10-19T03:28:52;8.30;99.90
56076;DHT22;41951;49.022;12.066;2023-10-19T03:31:24;8.30;99.90
56076;DHT22;41951;49.022;12.066;2023-10-19T03:33:51;8.30;99.90
56076;DHT22;41951;49.022;12.066;2023-10-19T03:36:23;8.30;99.90
56076;DHT22;41951;49.022;12.066;2023-10-19T03:38:49;8.30;99.90
56076;DHT22;41951;49.022;12.066;2023-10-19T03:41:17;8.40;99.90
56076;DHT22;41951;49.022;12.066;2023-10-19T03:43:48;8.30;99.90
56076;DHT22;41951;49.022;12.066;2023-10-19T03:46:14;8.30;99.90
56076;DHT22;41951;49.022;12.066;2023-10-19T03:48:48;8.30;99.90
56076;DHT22;41951;49.022;12.066;2023-10-19T03:51:14;8.30;99.90
56076;DHT22;41951;49.022;12.066;2023-10-19T03:53:40;8.30;99.90
56076;DHT22;41951;49.022;12.066;2023-10-19T03:56:12;8.30;99.90
56076;DHT22;41951;49.022;12.066;2023-10-19T03:58:37;8.30;99.90
56076;DHT22;41951;49.022;12.066;2023-10-19T04:01:05;8.30;99.90
56076;DHT22;41951;49.022;12.066;2023-10-19T04:03:32;8.30;99.90
56076;DHT22;41951;49.022;12.066;2023-10-19T04:05:58;8.20;99.90
56076;DHT22;41951;49.022;12.066;2023-10-19T04:08:26;8.30;99.90
56076;DHT22;41951;49.022;12.066;2023-10-19T04:10:52;8.30;99.90
56076;DHT22;41951;49.022;12.066;2023-10-19T04:13:34;8.30;99.90
56076;DHT22;41951;49.022;12.066;2023-10-19T04:16:02;8.30;99.90
56076;DHT22;41951;49.022;12.066;2023-10-19T04:18:27;8.30;99.90
56076;DHT22;41951;49.022;12.066;2023-10-19T04:20:53;8.30;99.90
56076;DHT22;41951;49.022;12.066;2023-10-19T04:23:19;8.30;99.90
56076;DHT22;41951;49.022;12.066;2023-10-19T04:25:47;8.30;99.90
56076;DHT22;41951;49.022;12.066;2023-10-19T04:28:12;8.30;99.90
56076;DHT22;41951;49.022;12.066;2023-10-19T04:30:42;8.30;99.90
56076;DHT22;41951;49.022;12.066;2023-10-19T04:33:08;8.20;99.90
56076;DHT22;41951;49.022;12.066;2023-10-19T04:35:36;8.20;99.90
56076;DHT22;41951;49.022;12.066;2023-10-19T04:38:04;8.20;99.90
56076;DHT22;41951;49.022;12.066;2023-10-19T04:40:33;8.30;99.90
56076;DHT22;41951;49.022;12.066;2023-10-19T04:43:01;8.30;99.90
56076;DHT22;41951;49.022;12.066;2023-10-19T04:45:28;8.30;99.90
56076;DHT22;41951;49.022;12.066;2023-10-19T04:47:55;8.20;99.90
56076;DHT22;41951;49.022;12.066;2023-10-19T04:50:21;8.20;99.90
56076;DHT22;41951;49.022;12.066;2023-10-19T04:52:47;8.30;99.90
56076;DHT22;41951;49.022;12.066;2023-10-19T04:55:15;8.10;99.90
56076;DHT22;41951;49.022;12.066;2023-10-19T04:57:41;8.20;99.90
56076;DHT22;41951;49.022;12.066;2023-10-19T05:00:07;8.20;99.90
56076;DHT22;41951;49.022;12.066;2023-10-19T05:02:38;8.20;99.90
56076;DHT22;41951;49.022;12.066;2023-10-19T05:05:04;8.20;99.90
56076;DHT22;41951;49.022;12.066;2023-10-19T05:07:30;8.10;99.90
56076;DHT22;41951;49.022;12.066;2023-10-19T05:09:55;8.20;99.90
56076;DHT22;41951;49.022;12.066;2023-10-19T05:12:21;8.20;99.90
56076;DHT22;41951;49.022;12.066;2023-10-19T05:14:47;8.20;99.90
56076;DHT22;41951;49.022;12.066;2023-10-19T05:17:12;8.30;99.90
56076;DHT22;41951;49.022;12.066;2023-10-19T05:19:39;8.30;99.90
56076;DHT22;41951;49.022;12.066;2023-10-19T05:22:08;8.30;99.90
56076;DHT22;41951;49.022;12.066;2023-10-19T05:24:34;8.30;99.90
56076;DHT22;41951;49.022;12.066;2023-10-19T05:27:00;8.30;99.90
56076;DHT22;41951;49.022;12.066;2023-10-19T05:29:26;9.70;99.90
56076;DHT22;41951;49.022;12.066;2023-10-19T05:31:52;8.30;99.90
56076;DHT22;41951;49.022;12.066;2023-10-19T05:34:24;8.30;99.90
56076;DHT22;41951;49.022;12.066;2023-10-19T05:36:50;8.30;99.90
56076;DHT22;41951;49.022;12.066;2023-10-19T05:39:17;8.30;99.90
56076;DHT22;41951;49.022;12.066;2023-10-19T05:41:43;8.30;99.90
56076;DHT22;41951;49.022;12.066;2023-10-19T05:44:09;8.40;99.90
56076;DHT22;41951;49.022;12.066;2023-10-19T05:46:35;8.30;99.90
56076;DHT22;41951;49.022;12.066;2023-10-19T05:49:01;8.40;99.90
56076;DHT22;41951;49.022;12.066;2023-10-19T05:51:30;8.40;99.90
56076;DHT22;41951;49.022;12.066;2023-10-19T05:53:55;8.40;99.90
56076;DHT22;41951;49.022;12.066;2023-10-19T05:56:29;8.50;99.90
56076;DHT22;41951;49.022;12.066;2023-10-19T05:58:56;8.40;99.90
56076;DHT22;41951;49.022;12.066;2023-10-19T06:01:22;8.40;99.90
56076;DHT22;41951;49.022;12.066;2023-10-19T06:03:48;8.40;99.90
56076;DHT22;41951;49.022;12.066;2023-10-19T06:06:14;8.40;99.90
56076;DHT22;41951;49.022;12.066;2023-10-19T06:08:43;8.30;99.90
56076;DHT22;41951;49.022;12.066;2023-10-19T06:11:09;8.30;99.90
56076;DHT22;41951;49.022;12.066;2023-10-19T06:13:34;8.30;99.90
56076;DHT22;41951;49.022;12.066;2023-10-19T06:16:00;8.30;99.90
56076;DHT22;41951;49.022;12.066;2023-10-19T06:18:25;8.30;99.90
56076;DHT22;41951;49.022;12.066;2023-10-19T06:20:51;8.40;99.90
56076;DHT22;41951;49.022;12.066;2023-10-19T06:23:20;8.40;99.90
56076;DHT22;41951;49.022;12.066;2023-10-19T06:25:46;8.40;99.90
56076;DHT22;41951;49.022;12.066;2023-10-19T06:28:12;8.50;99.90
56076;DHT22;41951;49.022;12.066;2023-10-19T06:30:38;9.50;99.90
56076;DHT22;41951;49.022;12.066;2023-10-19T06:33:05;8.50;99.90
56076;DHT22;41951;49.022;12.066;2023-10-19T06:35:32;8.50;99.90
56076;DHT22;41951;49.022;12.066;2023-10-19T06:37:58;8.60;99.90
56076;DHT22;41951;49.022;12.066;2023-10-19T06:40:28;8.60;99.90
56076;DHT22;41951;49.022;12.066;2023-10-19T06:42:55;8.70;99.90
56076;DHT22;41951;49.022;12.066;2023-10-19T06:45:22;8.60;99.90
56076;DHT22;41951;49.022;12.066;2023-10-19T06:47:48;8.60;99.90
56076;DHT22;41951;49.022;12.066;2023-10-19T06:50:17;8.70;99.90
56076;DHT22;41951;49.022;12.066;2023-10-19T06:52:44;8.70;99.90
56076;DHT22;41951;49.022;12.066;2023-10-19T06:55:10;8.70;99.90
56076;DHT22;41951;49.022;12.066;2023-10-19T06:57:43;8.80;99.90
56076;DHT22;41951;49.022;12.066;2023-10-19T07:00:11;8.80;99.90
56076;DHT22;41951;49.022;12.066;2023-10-19T07:02:42;8.80;99.90
56076;DHT22;41951;49.022;12.066;2023-10-19T07:05:08;8.80;99.90
56076;DHT22;41951;49.022;12.066;2023-10-19T07:07:43;8.80;99.90
56076;DHT22;41951;49.022;12.066;2023-10-19T07:10:10;9.00;99.90
56076;DHT22;41951;49.022;12.066;2023-10-19T07:12:42;9.00;99.90
56076;DHT22;41951;49.022;12.066;2023-10-19T07:15:08;9.00;99.90
56076;DHT22;41951;49.022;12.066;2023-10-19T07:17:42;9.00;99.90
56076;DHT22;41951;49.022;12.066;2023-10-19T07:20:09;9.10;99.90
56076;DHT22;41951;49.022;12.066;2023-10-19T07:22:47;9.00;99.90
56076;DHT22;41951;49.022;12.066;2023-10-19T07:25:13;9.10;99.90
56076;DHT22;41951;49.022;12.066;2023-10-19T07:27:39;9.10;99.90
56076;DHT22;41951;49.022;12.066;2023-10-19T07:30:08;9.10;99.90
56076;DHT22;41951;49.022;12.066;2023-10-19T07:32:35;9.20;99.90
56076;DHT22;41951;49.022;12.066;2023-10-19T07:35:01;9.20;99.90
56076;DHT22;41951;49.022;12.066;2023-10-19T07:37:26;9.30;99.90
56076;DHT22;41951;49.022;12.066;2023-10-19T07:39:54;9.30;99.90
56076;DHT22;41951;49.022;12.066;2023-10-19T07:42:22;9.30;99.90
56076;DHT22;41951;49.022;12.066;2023-10-19T07:44:48;9.30;99.90
56076;DHT22;41951;49.022;12.066;2023-10-19T07:47:14;9.40;99.90
56076;DHT22;41951;49.022;12.066;2023-10-19T07:49:40;9.40;99.90
56076;DHT22;41951;49.022;12.066;2023-10-19T07:52:06;9.50;99.90
56076;DHT22;41951;49.022;12.066;2023-10-19T07:54:37;9.50;99.90
56076;DHT22;41951;49.022;12.066;2023-10-19T07:57:03;9.60;99.90
56076;DHT22;41951;49.022;12.066;2023-10-19T07:59:32;9.70;99.90
56076;DHT22;41951;49.022;12.066;2023-10-19T08:01:58;9.60;99.90
56076;DHT22;41951;49.022;12.066;2023-10-19T08:04:28;9.70;99.90
56076;DHT22;41951;49.022;12.066;2023-10-19T08:06:53;9.80;99.90
56076;DHT22;41951;49.022;12.066;2023-10-19T08:09:21;9.90;99.90
56076;DHT22;41951;49.022;12.066;2023-10-19T08:11:49;10.00;99.90
56076;DHT22;41951;49.022;12.066;2023-10-19T08:14:14;10.10;99.90
56076;DHT22;41951;49.022;12.066;2023-10-19T08:16:40;10.20;99.90
56076;DHT22;41951;49.022;12.066;2023-10-19T08:19:07;10.30;99.90
56076;DHT22;41951;49.022;12.066;2023-10-19T08:21:33;10.30;99.90
56076;DHT22;41951;49.022;12.066;2023-10-19T08:24:00;10.30;99.90
56076;DHT22;41951;49.022;12.066;2023-10-19T08:26:32;10.40;99.90
56076;DHT22;41951;49.022;12.066;2023-10-19T08:28:58;10.40;99.90
56076;DHT22;41951;49.022;12.066;2023-10-19T08:31:24;10.40;99.90
56076;DHT22;41951;49.022;12.066;2023-10-19T08:33:50;10.40;99.90
56076;DHT22;41951;49.022;12.066;2023-10-19T08:36:20;10.40;99.90
56076;DHT22;41951;49.022;12.066;2023-10-19T08:38:46;10.40;99.90
56076;DHT22;41951;49.022;12.066;2023-10-19T08:41:14;10.40;99.90
56076;DHT22;41951;49.022;12.066;2023-10-19T08:43:41;10.40;99.90
56076;DHT22;41951;49.022;12.066;2023-10-19T08:46:06;10.40;99.90
56076;DHT22;41951;49.022;12.066;2023-10-19T08:48:34;10.40;99.90
56076;DHT22;41951;49.022;12.066;2023-10-19T08:51:02;10.40;99.90
56076;DHT22;41951;49.022;12.066;2023-10-19T08:53:29;10.50;99.90
56076;DHT22;41951;49.022;12.066;2023-10-19T08:55:56;10.50;99.90
56076;DHT22;41951;49.022;12.066;2023-10-19T08:58:22;10.80;99.90
56076;DHT22;41951;49.022;12.066;2023-10-19T09:00:49;10.70;99.90
56076;DHT22;41951;49.022;12.066;2023-10-19T09:03:16;10.70;99.90
56076;DHT22;41951;49.022;12.066;2023-10-19T09:05:42;10.80;99.90
56076;DHT22;41951;49.022;12.066;2023-10-19T09:08:14;10.80;99.90
56076;DHT22;41951;49.022;12.066;2023-10-19T09:10:42;10.80;99.90
56076;DHT22;41951;49.022;12.066;2023-10-19T09:13:10;10.80;99.90
56076;DHT22;41951;49.022;12.066;2023-10-19T09:15:39;10.90;99.90
56076;DHT22;41951;49.022;12.066;2023-10-19T09:18:19;10.90;99.90
56076;DHT22;41951;49.022;12.066;2023-10-19T09:20:52;10.90;99.90
56076;DHT22;41951;49.022;12.066;2023-10-19T09:23:25;10.90;99.90
56076;DHT22;41951;49.022;12.066;2023-10-19T09:25:53;11.00;99.90
56076;DHT22;41951;49.022;12.066;2023-10-19T09:28:19;11.10;99.90
56076;DHT22;41951;49.022;12.066;2023-10-19T09:30:46;11.10;99.90
56076;DHT22;41951;49.022;12.066;2023-10-19T09:33:13;11.20;99.90
56076;DHT22;41951;49.022;12.066;2023-10-19T09:35:47;11.30;99.90
56076;DHT22;41951;49.022;12.066;2023-10-19T09:38:14;11.40;99.90
56076;DHT22;41951;49.022;12.066;2023-10-19T09:40:40;11.30;99.90
56076;DHT22;41951;49.022;12.066;2023-10-19T09:43:14;11.40;99.90
56076;DHT22;41951;49.022;12.066;2023-10-19T09:45:41;11.40;99.90
56076;DHT22;41951;49.022;12.066;2023-10-19T09:48:12;11.30;99.90
56076;DHT22;41951;49.022;12.066;2023-10-19T09:50:44;11.30;99.90
56076;DHT22;41951;49.022;12.066;2023-10-19T09:53:11;11.40;99.90
56076;DHT22;41951;49.022;12.066;2023-10-19T09:55:38;11.40;99.90
56076;DHT22;41951;49.022;12.066;2023-10-19T09:58:12;11.40;99.90
56076;DHT22;41951;49.022;12.066;2023-10-19T10:00:43;11.40;99.90
56076;DHT22;41951;49.022;12.066;2023-10-19T10:03:46;11.40;99.90
56076;DHT22;41951;49.022;12.066;2023-10-19T10:06:14;11.40;99.90
56076;DHT22;41951;49.022;12.066;2023-10-19T10:08:48;11.40;99.90
56076;DHT22;41951;49.022;12.066;2023-10-19T10:11:27;11.40;99.90
56076;DHT22;41951;49.022;12.066;2023-10-19T10:13:55;11.40;99.90
56076;DHT22;41951;49.022;12.066;2023-10-19T10:16:27;11.30;99.90
56076;DHT22;41951;49.022;12.066;2023-10-19T10:18:55;11.30;99.90
56076;DHT22;41951;49.022;12.066;2023-10-19T10:21:24;11.30;99.90
56076;DHT22;41951;49.022;12.066;2023-10-19T10:26:25;11.20;99.90
56076;DHT22;41951;49.022;12.066;2023-10-19T10:31:47;11.20;99.90
56076;DHT22;41951;49.022;12.066;2023-10-19T10:37:04;11.10;99.90
56076;DHT22;41951;49.022;12.066;2023-10-19T10:39:34;11.20;99.90
56076;DHT22;41951;49.022;12.066;2023-10-19T10:42:03;11.20;99.90
56076;DHT22;41951;49.022;12.066;2023-10-19T10:44:47;11.20;99.90
56076;DHT22;41951;49.022;12.066;2023-10-19T10:47:17;11.20;99.90
56076;DHT22;41951;49.022;12.066;2023-10-19T10:49:50;11.30;99.90
56076;DHT22;41951;49.022;12.066;2023-10-19T10:54:56;11.30;99.90
56076;DHT22;41951;49.022;12.066;2023-10-19T10:57:22;11.30;99.90
56076;DHT22;41951;49.022;12.066;2023-10-19T11:00:01;11.20;99.90
56076;DHT22;41951;49.022;12.066;2023-10-19T11:02:27;11.30;99.90
56076;DHT22;41951;49.022;12.066;2023-10-19T11:04:52;11.20;99.90
56076;DHT22;41951;49.022;12.066;2023-10-19T11:07:18;11.20;99.90
56076;DHT22;41951;49.022;12.066;2023-10-19T11:09:46;11.20;99.90
56076;DHT22;41951;49.022;12.066;2023-10-19T11:12:12;11.10;99.90
56076;DHT22;41951;49.022;12.066;2023-10-19T11:14:54;11.10;99.90
56076;DHT22;41951;49.022;12.066;2023-10-19T11:17:20;11.10;99.90
56076;DHT22;41951;49.022;12.066;2023-10-19T11:19:49;11.00;99.90
56076;DHT22;41951;49.022;12.066;2023-10-19T11:22:15;11.00;99.90
56076;DHT22;41951;49.022;12.066;2023-10-19T11:24:40;11.00;99.90
56076;DHT22;41951;49.022;12.066;2023-10-19T11:27:06;10.90;99.90
56076;DHT22;41951;49.022;12.066;2023-10-19T11:29:37;10.90;99.90
56076;DHT22;41951;49.022;12.066;2023-10-19T11:32:03;10.90;99.90
56076;DHT22;41951;49.022;12.066;2023-10-19T11:34:29;11.00;99.90
56076;DHT22;41951;49.022;12.066;2023-10-19T11:36:58;11.00;99.90
56076;DHT22;41951;49.022;12.066;2023-10-19T11:39:28;11.00;99.90
56076;DHT22;41951;49.022;12.066;2023-10-19T11:41:54;11.00;99.90
56076;DHT22;41951;49.022;12.066;2023-10-19T11:44:20;11.10;99.90
56076;DHT22;41951;49.022;12.066;2023-10-19T11:46:45;11.10;99.90
56076;DHT22;41951;49.022;12.066;2023-10-19T11:49:11;12.10;99.90
56076;DHT22;41951;49.022;12.066;2023-10-19T11:51:37;11.20;99.90
56076;DHT22;41951;49.022;12.066;2023-10-19T11:54:05;11.30;99.90
56076;DHT22;41951;49.022;12.066;2023-10-19T11:56:33;11.30;99.90
56076;DHT22;41951;49.022;12.066;2023-10-19T11:59:00;11.40;99.90
56076;DHT22;41951;49.022;12.066;2023-10-19T12:01:27;11.40;99.90
56076;DHT22;41951;49.022;12.066;2023-10-19T12:03:52;11.50;99.90
56076;DHT22;41951;49.022;12.066;2023-10-19T12:06:18;11.50;99.90
56076;DHT22;41951;49.022;12.066;2023-10-19T12:08:49;11.60;99.90
56076;DHT22;41951;49.022;12.066;2023-10-19T12:11:14;11.50;99.90
56076;DHT22;41951;49.022;12.066;2023-10-19T12:13:47;11.50;99.90
56076;DHT22;41951;49.022;12.066;2023-10-19T12:16:13;11.60;99.90
56076;DHT22;41951;49.022;12.066;2023-10-19T12:18:44;13.20;99.90
56076;DHT22;41951;49.022;12.066;2023-10-19T12:21:10;11.80;99.90
56076;DHT22;41951;49.022;12.066;2023-10-19T12:23:42;11.90;99.90
56076;DHT22;41951;49.022;12.066;2023-10-19T12:26:09;12.00;99.90
56076;DHT22;41951;49.022;12.066;2023-10-19T12:28:38;12.00;99.90
56076;DHT22;41951;49.022;12.066;2023-10-19T12:31:04;12.10;99.90
56076;DHT22;41951;49.022;12.066;2023-10-19T12:33:36;12.20;99.90
56076;DHT22;41951;49.022;12.066;2023-10-19T12:36:04;12.20;99.90
56076;DHT22;41951;49.022;12.066;2023-10-19T12:38:50;12.20;99.90
56076;DHT22;41951;49.022;12.066;2023-10-19T12:41:16;12.20;99.90
56076;DHT22;41951;49.022;12.066;2023-10-19T12:43:43;14.50;99.90
56076;DHT22;41951;49.022;12.066;2023-10-19T12:46:08;12.10;99.90
56076;DHT22;41951;49.022;12.066;2023-10-19T12:48:35;12.00;99.90
56076;DHT22;41951;49.022;12.066;2023-10-19T12:51:06;12.00;99.90
56076;DHT22;41951;49.022;12.066;2023-10-19T12:53:32;11.90;99.90
56076;DHT22;41951;49.022;12.066;2023-10-19T12:55:59;11.90;99.90
56076;DHT22;41951;49.022;12.066;2023-10-19T12:58:25;11.90;99.90
56076;DHT22;41951;49.022;12.066;2023-10-19T13:00:53;11.80;99.90
56076;DHT22;41951;49.022;12.066;2023-10-19T13:03:20;11.80;99.90
56076;DHT22;41951;49.022;12.066;2023-10-19T13:05:47;11.90;99.90
56076;DHT22;41951;49.022;12.066;2023-10-19T13:08:15;11.90;99.90
56076;DHT22;41951;49.022;12.066;2023-10-19T13:10:48;11.90;99.90
56076;DHT22;41951;49.022;12.066;2023-10-19T13:13:14;11.90;99.90
56076;DHT22;41951;49.022;12.066;2023-10-19T13:15:42;11.90;99.90
56076;DHT22;41951;49.022;12.066;2023-10-19T13:18:10;11.90;99.90
56076;DHT22;41951;49.022;12.066;2023-10-19T13:20:37;11.90;99.90
56076;DHT22;41951;49.022;12.066;2023-10-19T13:23:08;10.30;99.90
56076;DHT22;41951;49.022;12.066;2023-10-19T13:25:47;11.80;99.90
56076;DHT22;41951;49.022;12.066;2023-10-19T13:28:19;11.80;99.90
56076;DHT22;41951;49.022;12.066;2023-10-19T13:30:50;11.80;99.90
56076;DHT22;41951;49.022;12.066;2023-10-19T13:33:17;11.70;99.90
56076;DHT22;41951;49.022;12.066;2023-10-19T13:35:45;11.70;99.90
56076;DHT22;41951;49.022;12.066;2023-10-19T13:38:12;11.70;99.90
56076;DHT22;41951;49.022;12.066;2023-10-19T13:40:39;11.70;99.90
56076;DHT22;41951;49.022;12.066;2023-10-19T13:43:06;11.70;99.90
56076;DHT22;41951;49.022;12.066;2023-10-19T13:45:33;11.70;99.90
56076;DHT22;41951;49.022;12.066;2023-10-19T13:48:01;13.00;99.90
56076;DHT22;41951;49.022;12.066;2023-10-19T13:50:28;11.80;99.90
56076;DHT22;41951;49.022;12.066;2023-10-19T13:52:55;11.80;99.90
56076;DHT22;41951;49.022;12.066;2023-10-19T13:55:23;11.90;99.90
56076;DHT22;41951;49.022;12.066;2023-10-19T13:57:49;12.00;99.90
56076;DHT22;41951;49.022;12.066;2023-10-19T14:00:16;12.00;99.90
56076;DHT22;41951;49.022;12.066;2023-10-19T14:02:48;12.00;99.90
56076;DHT22;41951;49.022;12.066;2023-10-19T14:05:15;12.10;99.90
56076;DHT22;41951;49.022;12.066;2023-10-19T14:07:40;12.10;99.90
56076;DHT22;41951;49.022;12.066;2023-10-19T14:10:08;12.10;99.90
56076;DHT22;41951;49.022;12.066;2023-10-19T14:12:33;12.10;99.90
56076;DHT22;41951;49.022;12.066;2023-10-19T14:14:59;12.10;99.90
56076;DHT22;41951;49.022;12.066;2023-10-19T14:17:24;12.00;99.90
56076;DHT22;41951;49.022;12.066;2023-10-19T14:19:51;12.00;99.90
56076;DHT22;41951;49.022;12.066;2023-10-19T14:22:16;12.00;99.90
56076;DHT22;41951;49.022;12.066;2023-10-19T14:24:43;11.90;99.90
56076;DHT22;41951;49.022;12.066;2023-10-19T14:27:10;11.90;99.90
56076;DHT22;41951;49.022;12.066;2023-10-19T14:29:36;11.90;99.90
56076;DHT22;41951;49.022;12.066;2023-10-19T14:32:01;11.90;99.90
56076;DHT22;41951;49.022;12.066;2023-10-19T14:34:28;11.80;99.90
56076;DHT22;41951;49.022;12.066;2023-10-19T14:36:54;11.80;99.90
56076;DHT22;41951;49.022;12.066;2023-10-19T14:39:20;11.80;99.90
56076;DHT22;41951;49.022;12.066;2023-10-19T14:41:46;11.80;99.90
56076;DHT22;41951;49.022;12.066;2023-10-19T14:44:12;11.70;99.90
56076;DHT22;41951;49.022;12.066;2023-10-19T14:46:37;11.70;99.90
56076;DHT22;41951;49.022;12.066;2023-10-19T14:49:03;11.80;99.90
56076;DHT22;41951;49.022;12.066;2023-10-19T14:51:30;11.80;99.90
56076;DHT22;41951;49.022;12.066;2023-10-19T14:53:55;11.70;99.90
56076;DHT22;41951;49.022;12.066;2023-10-19T14:56:21;11.80;99.90
56076;DHT22;41951;49.022;12.066;2023-10-19T14:58:46;11.70;99.90
56076;DHT22;41951;49.022;12.066;2023-10-19T15:01:12;11.70;99.90
56076;DHT22;41951;49.022;12.066;2023-10-19T15:03:42;11.70;99.90
56076;DHT22;41951;49.022;12.066;2023-10-19T15:06:08;11.70;99.90
56076;DHT22;41951;49.022;12.066;2023-10-19T15:08:34;11.70;99.90
56076;DHT22;41951;49.022;12.066;2023-10-19T15:10:59;11.70;99.90
56076;DHT22;41951;49.022;12.066;2023-10-19T15:13:25;11.70;99.90
56076;DHT22;41951;49.022;12.066;2023-10-19T15:15:51;11.60;99.90
56076;DHT22;41951;49.022;12.066;2023-10-19T15:18:17;11.60;99.90
56076;DHT22;41951;49.022;12.066;2023-10-19T15:20:43;11.60;99.90
56076;DHT22;41951;49.022;12.066;2023-10-19T15:23:09;11.60;99.90
56076;DHT22;41951;49.022;12.066;2023-10-19T15:25:36;11.60;99.90
56076;DHT22;41951;49.022;12.066;2023-10-19T15:28:02;11.60;99.90
56076;DHT22;41951;49.022;12.066;2023-10-19T15:30:28;11.50;99.90
56076;DHT22;41951;49.022;12.066;2023-10-19T15:32:54;11.50;99.90
56076;DHT22;41951;49.022;12.066;2023-10-19T15:35:20;11.50;99.90
56076;DHT22;41951;49.022;12.066;2023-10-19T15:37:48;11.50;99.90
56076;DHT22;41951;49.022;12.066;2023-10-19T15:40:15;11.50;99.90
56076;DHT22;41951;49.022;12.066;2023-10-19T15:42:41;11.50;99.90